sensor_id;sensor_type;location;lat;lon;timestamp;P1;durP1;ratioP1;P2;durP2;ratioP2
66567;SDS011;53422;49.296;6.900;2023-03-13T00:02:11;5.80;;;1.92;;
66567;SDS011;53422;49.296;6.900;2023-03-13T00:04:37;3.17;;;1.27;;
66567;SDS011;53422;49.296;6.900;2023-03-13T00:07:03;4.53;;;1.90;;
66567;SDS011;53422;49.296;6.900;2023-03-13T00:09:28;5.65;;;1.55;;
66567;SDS011;53422;49.296;6.900;2023-03-13T00:11:55;7.90;;;1.50;;
66567;SDS011;53422;49.296;6.900;2023-03-13T00:14:20;3.80;;;1.90;;
66567;SDS011;53422;49.296;6.900;2023-03-13T00:16:46;5.18;;;1.63;;
66567;SDS011;53422;49.296;6.900;2023-03-13T00:19:12;6.40;;;1.88;;
66567;SDS011;53422;49.296;6.900;2023-03-13T00:21:39;6.80;;;1.23;;
66567;SDS011;53422;49.296;6.900;2023-03-13T00:24:05;5.65;;;1.33;;
66567;SDS011;53422;49.296;6.900;2023-03-13T00:26:31;6.72;;;1.85;;
66567;SDS011;53422;49.296;6.900;2023-03-13T00:28:57;2.38;;;1.40;;
66567;SDS011;53422;49.296;6.900;2023-03-13T00:31:24;6.85;;;1.15;;
66567;SDS011;53422;49.296;6.900;2023-03-13T00:33:53;3.10;;;1.40;;
66567;SDS011;53422;49.296;6.900;2023-03-13T00:36:22;7.03;;;1.52;;
66567;SDS011;53422;49.296;6.900;2023-03-13T00:38:59;5.20;;;1.65;;
66567;SDS011;53422;49.296;6.900;2023-03-13T00:41:26;5.00;;;1.40;;
66567;SDS011;53422;49.296;6.900;2023-03-13T00:46:20;5.63;;;1.38;;
66567;SDS011;53422;49.296;6.900;2023-03-13T00:48:47;5.57;;;1.80;;
66567;SDS011;53422;49.296;6.900;2023-03-13T00:51:14;2.78;;;1.70;;
66567;SDS011;53422;49.296;6.900;2023-03-13T00:53:41;6.35;;;1.42;;
66567;SDS011;53422;49.296;6.900;2023-03-13T00:56:13;2.78;;;1.02;;
66567;SDS011;53422;49.296;6.900;2023-03-13T00:58:41;5.60;;;1.33;;
66567;SDS011;53422;49.296;6.900;2023-03-13T01:01:09;5.55;;;1.70;;
66567;SDS011;53422;49.296;6.900;2023-03-13T01:03:35;9.07;;;2.08;;
66567;SDS011;53422;49.296;6.900;2023-03-13T01:06:02;7.25;;;0.88;;
66567;SDS011;53422;49.296;6.900;2023-03-13T01:08:30;6.65;;;0.63;;
66567;SDS011;53422;49.296;6.900;2023-03-13T01:10:57;2.58;;;1.00;;
66567;SDS011;53422;49.296;6.900;2023-03-13T01:13:28;6.32;;;1.67;;
66567;SDS011;53422;49.296;6.900;2023-03-13T01:15:56;3.80;;;1.55;;
66567;SDS011;53422;49.296;6.900;2023-03-13T01:18:25;5.82;;;1.60;;
66567;SDS011;53422;49.296;6.900;2023-03-13T01:20:51;8.93;;;2.45;;
66567;SDS011;53422;49.296;6.900;2023-03-13T01:23:17;4.07;;;1.40;;
66567;SDS011;53422;49.296;6.900;2023-03-13T01:25:42;4.55;;;1.42;;
66567;SDS011;53422;49.296;6.900;2023-03-13T01:28:08;7.25;;;1.20;;
66567;SDS011;53422;49.296;6.900;2023-03-13T01:30:34;2.30;;;1.17;;
66567;SDS011;53422;49.296;6.900;2023-03-13T01:32:59;5.63;;;1.48;;
66567;SDS011;53422;49.296;6.900;2023-03-13T01:35:26;5.28;;;1.92;;
66567;SDS011;53422;49.296;6.900;2023-03-13T01:37:51;6.78;;;1.30;;
66567;SDS011;53422;49.296;6.900;2023-03-13T01:40:17;4.57;;;1.50;;
66567;SDS011;53422;49.296;6.900;2023-03-13T01:48:39;5.75;;;2.03;;
66567;SDS011;53422;49.296;6.900;2023-03-13T01:51:25;3.40;;;1.42;;
66567;SDS011;53422;49.296;6.900;2023-03-13T01:54:04;8.23;;;2.25;;
66567;SDS011;53422;49.296;6.900;2023-03-13T01:56:47;3.88;;;0.80;;
66567;SDS011;53422;49.296;6.900;2023-03-13T01:59:19;2.53;;;1.63;;
66567;SDS011;53422;49.296;6.900;2023-03-13T02:01:48;3.45;;;2.25;;
66567;SDS011;53422;49.296;6.900;2023-03-13T02:04:16;3.95;;;1.67;;
66567;SDS011;53422;49.296;6.900;2023-03-13T02:06:44;3.42;;;2.42;;
66567;SDS011;53422;49.296;6.900;2023-03-13T02:09:16;3.50;;;1.73;;
66567;SDS011;53422;49.296;6.900;2023-03-13T02:11:46;4.05;;;1.40;;
66567;SDS011;53422;49.296;6.900;2023-03-13T02:14:34;3.80;;;1.48;;
66567;SDS011;53422;49.296;6.900;2023-03-13T02:17:02;2.20;;;1.55;;
66567;SDS011;53422;49.296;6.900;2023-03-13T02:19:31;4.88;;;2.10;;
66567;SDS011;53422;49.296;6.900;2023-03-13T02:22:12;4.60;;;1.75;;
66567;SDS011;53422;49.296;6.900;2023-03-13T02:24:53;2.17;;;1.48;;
66567;SDS011;53422;49.296;6.900;2023-03-13T02:27:33;2.88;;;1.75;;
66567;SDS011;53422;49.296;6.900;2023-03-13T02:29:59;3.72;;;1.58;;
66567;SDS011;53422;49.296;6.900;2023-03-13T02:32:25;4.20;;;1.75;;
66567;SDS011;53422;49.296;6.900;2023-03-13T02:34:53;5.32;;;2.00;;
66567;SDS011;53422;49.296;6.900;2023-03-13T02:37:22;3.08;;;1.50;;
66567;SDS011;53422;49.296;6.900;2023-03-13T02:39:50;5.95;;;2.42;;
66567;SDS011;53422;49.296;6.900;2023-03-13T02:42:17;4.13;;;1.95;;
66567;SDS011;53422;49.296;6.900;2023-03-13T02:44:45;4.82;;;2.17;;
66567;SDS011;53422;49.296;6.900;2023-03-13T02:47:15;2.65;;;1.80;;
66567;SDS011;53422;49.296;6.900;2023-03-13T02:49:45;4.28;;;2.13;;
66567;SDS011;53422;49.296;6.900;2023-03-13T02:52:16;4.95;;;1.67;;
66567;SDS011;53422;49.296;6.900;2023-03-13T02:55:37;3.25;;;2.15;;
66567;SDS011;53422;49.296;6.900;2023-03-13T02:57:48;2.83;;;1.58;;
66567;SDS011;53422;49.296;6.900;2023-03-13T03:00:14;1.63;;;1.35;;
66567;SDS011;53422;49.296;6.900;2023-03-13T03:02:41;4.00;;;2.33;;
66567;SDS011;53422;49.296;6.900;2023-03-13T03:05:08;3.05;;;2.65;;
66567;SDS011;53422;49.296;6.900;2023-03-13T03:07:34;4.25;;;2.70;;
66567;SDS011;53422;49.296;6.900;2023-03-13T03:10:00;4.45;;;2.13;;
66567;SDS011;53422;49.296;6.900;2023-03-13T03:12:25;2.83;;;1.98;;
66567;SDS011;53422;49.296;6.900;2023-03-13T03:14:51;3.63;;;2.20;;
66567;SDS011;53422;49.296;6.900;2023-03-13T03:17:17;4.40;;;2.15;;
66567;SDS011;53422;49.296;6.900;2023-03-13T03:19:42;3.97;;;2.67;;
66567;SDS011;53422;49.296;6.900;2023-03-13T03:22:08;5.45;;;2.45;;
66567;SDS011;53422;49.296;6.900;2023-03-13T03:24:34;5.78;;;2.78;;
66567;SDS011;53422;49.296;6.900;2023-03-13T03:26:59;7.13;;;2.65;;
66567;SDS011;53422;49.296;6.900;2023-03-13T03:29:25;4.07;;;2.13;;
66567;SDS011;53422;49.296;6.900;2023-03-13T03:31:51;5.50;;;2.78;;
66567;SDS011;53422;49.296;6.900;2023-03-13T03:34:17;5.50;;;3.22;;
66567;SDS011;53422;49.296;6.900;2023-03-13T03:36:44;7.38;;;3.13;;
66567;SDS011;53422;49.296;6.900;2023-03-13T03:39:10;7.43;;;3.00;;
66567;SDS011;53422;49.296;6.900;2023-03-13T03:41:35;4.72;;;2.90;;
66567;SDS011;53422;49.296;6.900;2023-03-13T03:44:01;5.07;;;2.42;;
66567;SDS011;53422;49.296;6.900;2023-03-13T03:46:27;3.83;;;2.53;;
66567;SDS011;53422;49.296;6.900;2023-03-13T03:48:53;4.97;;;2.17;;
66567;SDS011;53422;49.296;6.900;2023-03-13T03:51:19;5.57;;;2.65;;
66567;SDS011;53422;49.296;6.900;2023-03-13T03:53:45;4.88;;;2.55;;
66567;SDS011;53422;49.296;6.900;2023-03-13T03:56:10;5.25;;;2.33;;
66567;SDS011;53422;49.296;6.900;2023-03-13T03:58:36;6.47;;;2.67;;
66567;SDS011;53422;49.296;6.900;2023-03-13T04:01:02;4.60;;;2.53;;
66567;SDS011;53422;49.296;6.900;2023-03-13T04:03:28;7.15;;;3.22;;
66567;SDS011;53422;49.296;6.900;2023-03-13T04:05:54;2.88;;;1.80;;
66567;SDS011;53422;49.296;6.900;2023-03-13T04:08:20;4.13;;;2.33;;
66567;SDS011;53422;49.296;6.900;2023-03-13T04:10:45;4.70;;;2.58;;
66567;SDS011;53422;49.296;6.900;2023-03-13T04:13:11;3.83;;;2.60;;
66567;SDS011;53422;49.296;6.900;2023-03-13T04:15:40;4.63;;;3.67;;
66567;SDS011;53422;49.296;6.900;2023-03-13T04:18:06;5.35;;;2.65;;
66567;SDS011;53422;49.296;6.900;2023-03-13T04:20:32;4.53;;;1.88;;
66567;SDS011;53422;49.296;6.900;2023-03-13T04:22:57;4.82;;;2.53;;
66567;SDS011;53422;49.296;6.900;2023-03-13T04:25:23;2.65;;;1.85;;
66567;SDS011;53422;49.296;6.900;2023-03-13T04:27:49;7.60;;;3.22;;
66567;SDS011;53422;49.296;6.900;2023-03-13T04:30:15;4.43;;;2.90;;
66567;SDS011;53422;49.296;6.900;2023-03-13T04:32:41;6.10;;;3.33;;
66567;SDS011;53422;49.296;6.900;2023-03-13T04:35:07;3.17;;;2.28;;
66567;SDS011;53422;49.296;6.900;2023-03-13T04:37:32;6.00;;;2.40;;
66567;SDS011;53422;49.296;6.900;2023-03-13T04:39:58;6.97;;;2.92;;
66567;SDS011;53422;49.296;6.900;2023-03-13T04:42:24;6.43;;;3.42;;
66567;SDS011;53422;49.296;6.900;2023-03-13T04:44:50;3.30;;;2.17;;
66567;SDS011;53422;49.296;6.900;2023-03-13T04:47:15;4.93;;;2.60;;
66567;SDS011;53422;49.296;6.900;2023-03-13T04:49:41;4.68;;;1.85;;
66567;SDS011;53422;49.296;6.900;2023-03-13T04:52:07;4.47;;;3.00;;
66567;SDS011;53422;49.296;6.900;2023-03-13T04:54:32;3.42;;;1.88;;
66567;SDS011;53422;49.296;6.900;2023-03-13T04:56:58;5.15;;;2.75;;
66567;SDS011;53422;49.296;6.900;2023-03-13T04:59:24;2.10;;;1.63;;
66567;SDS011;53422;49.296;6.900;2023-03-13T05:01:49;2.90;;;2.00;;
66567;SDS011;53422;49.296;6.900;2023-03-13T05:04:15;3.22;;;2.17;;
66567;SDS011;53422;49.296;6.900;2023-03-13T05:06:41;5.15;;;2.90;;
66567;SDS011;53422;49.296;6.900;2023-03-13T05:09:06;3.55;;;2.55;;
66567;SDS011;53422;49.296;6.900;2023-03-13T05:11:32;3.03;;;2.13;;
66567;SDS011;53422;49.296;6.900;2023-03-13T05:13:58;4.30;;;2.38;;
66567;SDS011;53422;49.296;6.900;2023-03-13T05:16:24;3.55;;;2.38;;
66567;SDS011;53422;49.296;6.900;2023-03-13T05:18:49;6.50;;;2.47;;
66567;SDS011;53422;49.296;6.900;2023-03-13T05:21:15;4.93;;;2.25;;
66567;SDS011;53422;49.296;6.900;2023-03-13T05:23:41;3.13;;;2.15;;
66567;SDS011;53422;49.296;6.900;2023-03-13T05:26:06;3.88;;;2.95;;
66567;SDS011;53422;49.296;6.900;2023-03-13T05:28:32;2.83;;;2.03;;
66567;SDS011;53422;49.296;6.900;2023-03-13T05:30:57;4.20;;;2.10;;
66567;SDS011;53422;49.296;6.900;2023-03-13T05:33:23;2.65;;;1.58;;
66567;SDS011;53422;49.296;6.900;2023-03-13T05:35:49;3.50;;;1.92;;
66567;SDS011;53422;49.296;6.900;2023-03-13T05:38:14;3.35;;;1.80;;
66567;SDS011;53422;49.296;6.900;2023-03-13T05:40:40;2.80;;;1.83;;
66567;SDS011;53422;49.296;6.900;2023-03-13T05:43:06;2.47;;;1.67;;
66567;SDS011;53422;49.296;6.900;2023-03-13T05:45:32;3.85;;;1.90;;
66567;SDS011;53422;49.296;6.900;2023-03-13T05:47:57;2.00;;;1.10;;
66567;SDS011;53422;49.296;6.900;2023-03-13T05:50:23;1.80;;;1.15;;
66567;SDS011;53422;49.296;6.900;2023-03-13T05:52:49;2.05;;;1.38;;
66567;SDS011;53422;49.296;6.900;2023-03-13T05:55:16;2.13;;;1.50;;
66567;SDS011;53422;49.296;6.900;2023-03-13T05:57:45;2.53;;;1.80;;
66567;SDS011;53422;49.296;6.900;2023-03-13T06:00:12;1.20;;;0.98;;
66567;SDS011;53422;49.296;6.900;2023-03-13T06:02:39;2.17;;;1.52;;
66567;SDS011;53422;49.296;6.900;2023-03-13T06:05:06;3.22;;;1.48;;
66567;SDS011;53422;49.296;6.900;2023-03-13T06:07:31;2.10;;;1.20;;
66567;SDS011;53422;49.296;6.900;2023-03-13T06:09:57;3.40;;;1.58;;
66567;SDS011;53422;49.296;6.900;2023-03-13T06:12:23;3.75;;;1.67;;
66567;SDS011;53422;49.296;6.900;2023-03-13T06:14:48;3.88;;;2.30;;
66567;SDS011;53422;49.296;6.900;2023-03-13T06:17:14;2.10;;;1.92;;
66567;SDS011;53422;49.296;6.900;2023-03-13T06:19:40;3.88;;;1.67;;
66567;SDS011;53422;49.296;6.900;2023-03-13T06:22:06;3.58;;;1.50;;
66567;SDS011;53422;49.296;6.900;2023-03-13T06:24:31;4.50;;;2.00;;
66567;SDS011;53422;49.296;6.900;2023-03-13T06:26:57;2.33;;;1.35;;
66567;SDS011;53422;49.296;6.900;2023-03-13T06:29:23;4.03;;;1.45;;
66567;SDS011;53422;49.296;6.900;2023-03-13T06:31:49;3.38;;;1.60;;
66567;SDS011;53422;49.296;6.900;2023-03-13T06:34:15;2.25;;;1.63;;
66567;SDS011;53422;49.296;6.900;2023-03-13T06:36:41;2.92;;;1.48;;
66567;SDS011;53422;49.296;6.900;2023-03-13T06:39:07;3.58;;;1.35;;
66567;SDS011;53422;49.296;6.900;2023-03-13T06:41:33;6.55;;;1.73;;
66567;SDS011;53422;49.296;6.900;2023-03-13T06:43:59;2.17;;;1.40;;
66567;SDS011;53422;49.296;6.900;2023-03-13T06:46:25;2.42;;;1.70;;
66567;SDS011;53422;49.296;6.900;2023-03-13T06:48:51;2.03;;;1.20;;
66567;SDS011;53422;49.296;6.900;2023-03-13T06:51:18;2.75;;;1.50;;
66567;SDS011;53422;49.296;6.900;2023-03-13T06:53:45;2.95;;;1.42;;
66567;SDS011;53422;49.296;6.900;2023-03-13T06:56:11;2.53;;;1.63;;
66567;SDS011;53422;49.296;6.900;2023-03-13T06:58:37;2.35;;;1.73;;
66567;SDS011;53422;49.296;6.900;2023-03-13T07:01:06;1.60;;;1.27;;
66567;SDS011;53422;49.296;6.900;2023-03-13T07:03:36;3.95;;;1.60;;
66567;SDS011;53422;49.296;6.900;2023-03-13T07:06:02;1.95;;;1.65;;
66567;SDS011;53422;49.296;6.900;2023-03-13T07:08:29;4.28;;;1.77;;
66567;SDS011;53422;49.296;6.900;2023-03-13T07:10:59;1.70;;;1.23;;
66567;SDS011;53422;49.296;6.900;2023-03-13T07:13:26;3.70;;;2.10;;
66567;SDS011;53422;49.296;6.900;2023-03-13T07:15:52;4.18;;;1.90;;
66567;SDS011;53422;49.296;6.900;2023-03-13T07:18:18;3.28;;;1.95;;
66567;SDS011;53422;49.296;6.900;2023-03-13T07:20:44;1.85;;;1.20;;
66567;SDS011;53422;49.296;6.900;2023-03-13T07:23:20;3.80;;;1.92;;
66567;SDS011;53422;49.296;6.900;2023-03-13T07:25:55;4.32;;;1.65;;
66567;SDS011;53422;49.296;6.900;2023-03-13T07:28:23;2.67;;;1.25;;
66567;SDS011;53422;49.296;6.900;2023-03-13T07:30:49;2.85;;;1.55;;
66567;SDS011;53422;49.296;6.900;2023-03-13T07:33:15;4.13;;;1.95;;
66567;SDS011;53422;49.296;6.900;2023-03-13T07:35:48;4.38;;;2.20;;
66567;SDS011;53422;49.296;6.900;2023-03-13T07:38:15;6.93;;;2.00;;
66567;SDS011;53422;49.296;6.900;2023-03-13T07:40:46;2.65;;;1.63;;
66567;SDS011;53422;49.296;6.900;2023-03-13T07:43:13;4.68;;;1.65;;
66567;SDS011;53422;49.296;6.900;2023-03-13T07:45:38;3.72;;;1.77;;
66567;SDS011;53422;49.296;6.900;2023-03-13T07:50:38;3.78;;;1.60;;
66567;SDS011;53422;49.296;6.900;2023-03-13T07:53:04;3.83;;;2.03;;
66567;SDS011;53422;49.296;6.900;2023-03-13T07:55:30;6.93;;;2.08;;
66567;SDS011;53422;49.296;6.900;2023-03-13T07:57:55;3.25;;;2.00;;
66567;SDS011;53422;49.296;6.900;2023-03-13T08:00:21;4.35;;;1.60;;
66567;SDS011;53422;49.296;6.900;2023-03-13T08:02:47;4.10;;;2.90;;
66567;SDS011;53422;49.296;6.900;2023-03-13T08:05:12;5.40;;;2.17;;
66567;SDS011;53422;49.296;6.900;2023-03-13T08:07:38;6.82;;;2.58;;
66567;SDS011;53422;49.296;6.900;2023-03-13T08:10:04;2.90;;;1.52;;
66567;SDS011;53422;49.296;6.900;2023-03-13T08:12:30;2.05;;;1.00;;
66567;SDS011;53422;49.296;6.900;2023-03-13T08:14:56;5.93;;;2.20;;
66567;SDS011;53422;49.296;6.900;2023-03-13T08:17:22;4.90;;;1.95;;
66567;SDS011;53422;49.296;6.900;2023-03-13T08:19:48;4.18;;;2.05;;
66567;SDS011;53422;49.296;6.900;2023-03-13T08:22:13;5.30;;;1.70;;
66567;SDS011;53422;49.296;6.900;2023-03-13T08:24:39;4.10;;;2.22;;
66567;SDS011;53422;49.296;6.900;2023-03-13T08:27:05;3.63;;;1.63;;
66567;SDS011;53422;49.296;6.900;2023-03-13T08:29:30;3.78;;;1.77;;
66567;SDS011;53422;49.296;6.900;2023-03-13T08:31:56;4.20;;;2.40;;
66567;SDS011;53422;49.296;6.900;2023-03-13T08:34:22;4.03;;;2.25;;
66567;SDS011;53422;49.296;6.900;2023-03-13T08:36:50;3.38;;;1.90;;
66567;SDS011;53422;49.296;6.900;2023-03-13T08:39:17;4.13;;;2.75;;
66567;SDS011;53422;49.296;6.900;2023-03-13T08:41:44;4.55;;;2.47;;
66567;SDS011;53422;49.296;6.900;2023-03-13T08:44:11;4.43;;;2.92;;
66567;SDS011;53422;49.296;6.900;2023-03-13T08:46:38;3.53;;;1.90;;
66567;SDS011;53422;49.296;6.900;2023-03-13T08:49:05;3.08;;;1.65;;
66567;SDS011;53422;49.296;6.900;2023-03-13T08:51:32;4.30;;;1.85;;
66567;SDS011;53422;49.296;6.900;2023-03-13T08:53:59;5.57;;;2.60;;
66567;SDS011;53422;49.296;6.900;2023-03-13T08:56:26;5.55;;;2.47;;
66567;SDS011;53422;49.296;6.900;2023-03-13T08:58:55;2.75;;;2.00;;
66567;SDS011;53422;49.296;6.900;2023-03-13T09:01:25;3.88;;;2.60;;
66567;SDS011;53422;49.296;6.900;2023-03-13T09:03:54;7.13;;;3.80;;
66567;SDS011;53422;49.296;6.900;2023-03-13T09:06:20;6.18;;;2.85;;
66567;SDS011;53422;49.296;6.900;2023-03-13T09:08:46;6.32;;;2.90;;
66567;SDS011;53422;49.296;6.900;2023-03-13T09:11:13;2.42;;;1.67;;
66567;SDS011;53422;49.296;6.900;2023-03-13T09:13:44;4.05;;;2.25;;
66567;SDS011;53422;49.296;6.900;2023-03-13T09:18:38;3.80;;;2.42;;
66567;SDS011;53422;49.296;6.900;2023-03-13T09:21:07;4.20;;;2.17;;
66567;SDS011;53422;49.296;6.900;2023-03-13T09:23:35;5.32;;;2.92;;
66567;SDS011;53422;49.296;6.900;2023-03-13T09:26:01;5.53;;;3.08;;
66567;SDS011;53422;49.296;6.900;2023-03-13T09:28:27;5.65;;;2.70;;
66567;SDS011;53422;49.296;6.900;2023-03-13T09:30:52;7.68;;;3.60;;
66567;SDS011;53422;49.296;6.900;2023-03-13T09:33:19;7.13;;;3.45;;
66567;SDS011;53422;49.296;6.900;2023-03-13T09:35:47;8.65;;;3.60;;
66567;SDS011;53422;49.296;6.900;2023-03-13T09:38:18;6.68;;;3.88;;
66567;SDS011;53422;49.296;6.900;2023-03-13T09:40:49;6.07;;;3.97;;
66567;SDS011;53422;49.296;6.900;2023-03-13T09:46:14;6.50;;;3.90;;
66567;SDS011;53422;49.296;6.900;2023-03-13T09:48:53;6.15;;;3.17;;
66567;SDS011;53422;49.296;6.900;2023-03-13T09:56:23;7.97;;;3.70;;
66567;SDS011;53422;49.296;6.900;2023-03-13T10:02:15;7.07;;;3.22;;
66567;SDS011;53422;49.296;6.900;2023-03-13T10:10:42;6.50;;;3.20;;
66567;SDS011;53422;49.296;6.900;2023-03-13T10:13:27;4.78;;;2.80;;
66567;SDS011;53422;49.296;6.900;2023-03-13T10:16:02;5.75;;;3.30;;
66567;SDS011;53422;49.296;6.900;2023-03-13T10:18:34;6.72;;;2.80;;
66567;SDS011;53422;49.296;6.900;2023-03-13T10:21:01;4.32;;;2.30;;
66567;SDS011;53422;49.296;6.900;2023-03-13T10:26:31;2.95;;;2.03;;
66567;SDS011;53422;49.296;6.900;2023-03-13T10:29:04;6.53;;;2.75;;
66567;SDS011;53422;49.296;6.900;2023-03-13T10:31:39;5.97;;;2.22;;
66567;SDS011;53422;49.296;6.900;2023-03-13T10:34:10;2.95;;;2.40;;
66567;SDS011;53422;49.296;6.900;2023-03-13T10:36:39;3.85;;;1.90;;
66567;SDS011;53422;49.296;6.900;2023-03-13T10:39:17;3.97;;;2.10;;
66567;SDS011;53422;49.296;6.900;2023-03-13T10:41:44;3.60;;;2.20;;
66567;SDS011;53422;49.296;6.900;2023-03-13T10:44:19;5.07;;;2.42;;
66567;SDS011;53422;49.296;6.900;2023-03-13T10:46:47;5.13;;;2.13;;
66567;SDS011;53422;49.296;6.900;2023-03-13T10:51:43;3.20;;;1.27;;
66567;SDS011;53422;49.296;6.900;2023-03-13T10:54:34;3.50;;;1.70;;
66567;SDS011;53422;49.296;6.900;2023-03-13T10:57:08;3.13;;;1.50;;
66567;SDS011;53422;49.296;6.900;2023-03-13T10:59:38;3.35;;;1.45;;
66567;SDS011;53422;49.296;6.900;2023-03-13T11:02:12;3.03;;;1.70;;
66567;SDS011;53422;49.296;6.900;2023-03-13T11:04:44;3.20;;;1.70;;
66567;SDS011;53422;49.296;6.900;2023-03-13T11:07:19;2.08;;;1.17;;
66567;SDS011;53422;49.296;6.900;2023-03-13T11:10:13;2.33;;;1.08;;
66567;SDS011;53422;49.296;6.900;2023-03-13T11:12:43;3.45;;;1.55;;
66567;SDS011;53422;49.296;6.900;2023-03-13T11:15:19;2.95;;;1.02;;
66567;SDS011;53422;49.296;6.900;2023-03-13T11:18:02;2.35;;;1.33;;
66567;SDS011;53422;49.296;6.900;2023-03-13T11:20:31;3.33;;;1.60;;
66567;SDS011;53422;49.296;6.900;2023-03-13T11:28:57;2.22;;;1.10;;
66567;SDS011;53422;49.296;6.900;2023-03-13T11:31:50;3.53;;;1.35;;
66567;SDS011;53422;49.296;6.900;2023-03-13T11:37:12;4.07;;;2.13;;
66567;SDS011;53422;49.296;6.900;2023-03-13T11:39:42;3.60;;;1.65;;
66567;SDS011;53422;49.296;6.900;2023-03-13T11:45:07;1.60;;;1.10;;
66567;SDS011;53422;49.296;6.900;2023-03-13T11:47:58;4.00;;;1.85;;
66567;SDS011;53422;49.296;6.900;2023-03-13T11:50:53;2.17;;;1.23;;
66567;SDS011;53422;49.296;6.900;2023-03-13T12:01:16;2.55;;;1.98;;
66567;SDS011;53422;49.296;6.900;2023-03-13T12:03:48;2.72;;;1.45;;
66567;SDS011;53422;49.296;6.900;2023-03-13T12:06:43;2.88;;;1.52;;
66567;SDS011;53422;49.296;6.900;2023-03-13T12:09:25;3.22;;;1.70;;
66567;SDS011;53422;49.296;6.900;2023-03-13T12:11:59;3.47;;;1.60;;
66567;SDS011;53422;49.296;6.900;2023-03-13T12:14:45;2.90;;;1.73;;
66567;SDS011;53422;49.296;6.900;2023-03-13T12:25:52;2.97;;;1.90;;
66567;SDS011;53422;49.296;6.900;2023-03-13T12:28:30;2.50;;;1.50;;
66567;SDS011;53422;49.296;6.900;2023-03-13T12:31:12;2.65;;;1.80;;
66567;SDS011;53422;49.296;6.900;2023-03-13T12:39:39;1.77;;;1.20;;
66567;SDS011;53422;49.296;6.900;2023-03-13T12:45:31;2.60;;;1.85;;
66567;SDS011;53422;49.296;6.900;2023-03-13T13:01:53;3.47;;;1.50;;
66567;SDS011;53422;49.296;6.900;2023-03-13T13:06:57;2.13;;;1.30;;
66567;SDS011;53422;49.296;6.900;2023-03-13T13:09:33;5.25;;;1.90;;
66567;SDS011;53422;49.296;6.900;2023-03-13T13:12:01;2.42;;;1.58;;
66567;SDS011;53422;49.296;6.900;2023-03-13T13:20:25;2.83;;;1.80;;
66567;SDS011;53422;49.296;6.900;2023-03-13T13:22:51;5.40;;;1.70;;
66567;SDS011;53422;49.296;6.900;2023-03-13T13:25:25;2.78;;;1.52;;
66567;SDS011;53422;49.296;6.900;2023-03-13T13:27:53;5.13;;;2.10;;
66567;SDS011;53422;49.296;6.900;2023-03-13T13:35:46;2.80;;;1.45;;
66567;SDS011;53422;49.296;6.900;2023-03-13T13:38:31;4.38;;;1.90;;
66567;SDS011;53422;49.296;6.900;2023-03-13T13:43:33;3.22;;;1.95;;
66567;SDS011;53422;49.296;6.900;2023-03-13T13:48:37;2.35;;;1.60;;
66567;SDS011;53422;49.296;6.900;2023-03-13T14:01:49;3.42;;;1.60;;
66567;SDS011;53422;49.296;6.900;2023-03-13T14:07:23;2.72;;;1.73;;
66567;SDS011;53422;49.296;6.900;2023-03-13T14:12:53;4.00;;;1.35;;
66567;SDS011;53422;49.296;6.900;2023-03-13T14:15:25;2.72;;;1.48;;
66567;SDS011;53422;49.296;6.900;2023-03-13T14:17:53;2.85;;;1.75;;
66567;SDS011;53422;49.296;6.900;2023-03-13T14:20:33;1.23;;;1.02;;
66567;SDS011;53422;49.296;6.900;2023-03-13T14:28:23;2.15;;;1.33;;
66567;SDS011;53422;49.296;6.900;2023-03-13T14:30:52;3.22;;;1.45;;
66567;SDS011;53422;49.296;6.900;2023-03-13T14:33:20;4.38;;;1.90;;
66567;SDS011;53422;49.296;6.900;2023-03-13T14:35:46;2.33;;;1.38;;
66567;SDS011;53422;49.296;6.900;2023-03-13T14:38:30;1.27;;;0.95;;
66567;SDS011;53422;49.296;6.900;2023-03-13T14:40:57;1.42;;;0.98;;
66567;SDS011;53422;49.296;6.900;2023-03-13T14:45:51;1.33;;;0.70;;
66567;SDS011;53422;49.296;6.900;2023-03-13T14:51:14;3.63;;;1.38;;
66567;SDS011;53422;49.296;6.900;2023-03-13T14:54:00;4.35;;;1.10;;
66567;SDS011;53422;49.296;6.900;2023-03-13T14:59:16;2.10;;;0.93;;
66567;SDS011;53422;49.296;6.900;2023-03-13T15:01:43;2.47;;;1.05;;
66567;SDS011;53422;49.296;6.900;2023-03-13T15:04:10;2.33;;;1.27;;
66567;SDS011;53422;49.296;6.900;2023-03-13T15:06:36;1.95;;;0.70;;
66567;SDS011;53422;49.296;6.900;2023-03-13T15:14:36;1.95;;;1.10;;
66567;SDS011;53422;49.296;6.900;2023-03-13T15:17:17;1.42;;;0.93;;
66567;SDS011;53422;49.296;6.900;2023-03-13T15:19:46;3.25;;;1.08;;
66567;SDS011;53422;49.296;6.900;2023-03-13T15:22:14;1.30;;;1.00;;
66567;SDS011;53422;49.296;6.900;2023-03-13T15:24:41;1.70;;;0.82;;
66567;SDS011;53422;49.296;6.900;2023-03-13T15:27:14;2.53;;;1.00;;
66567;SDS011;53422;49.296;6.900;2023-03-13T15:29:45;2.00;;;1.40;;
66567;SDS011;53422;49.296;6.900;2023-03-13T15:32:13;1.77;;;0.82;;
66567;SDS011;53422;49.296;6.900;2023-03-13T15:34:46;3.45;;;1.00;;
66567;SDS011;53422;49.296;6.900;2023-03-13T15:37:12;5.03;;;1.20;;
66567;SDS011;53422;49.296;6.900;2023-03-13T15:39:38;4.20;;;1.00;;
66567;SDS011;53422;49.296;6.900;2023-03-13T15:42:04;1.80;;;1.10;;
66567;SDS011;53422;49.296;6.900;2023-03-13T15:44:29;2.38;;;1.05;;
66567;SDS011;53422;49.296;6.900;2023-03-13T15:46:55;2.28;;;1.33;;
66567;SDS011;53422;49.296;6.900;2023-03-13T15:49:21;3.85;;;1.85;;
66567;SDS011;53422;49.296;6.900;2023-03-13T15:51:46;1.63;;;1.30;;
66567;SDS011;53422;49.296;6.900;2023-03-13T15:54:12;4.38;;;1.13;;
66567;SDS011;53422;49.296;6.900;2023-03-13T15:56:37;3.55;;;2.17;;
66567;SDS011;53422;49.296;6.900;2023-03-13T15:59:10;2.35;;;1.23;;
66567;SDS011;53422;49.296;6.900;2023-03-13T16:01:37;1.70;;;1.23;;
66567;SDS011;53422;49.296;6.900;2023-03-13T16:04:03;2.70;;;1.30;;
66567;SDS011;53422;49.296;6.900;2023-03-13T16:06:29;1.85;;;1.10;;
66567;SDS011;53422;49.296;6.900;2023-03-13T16:08:59;1.50;;;1.20;;
66567;SDS011;53422;49.296;6.900;2023-03-13T16:11:26;1.85;;;1.20;;
66567;SDS011;53422;49.296;6.900;2023-03-13T16:13:52;2.35;;;1.23;;
66567;SDS011;53422;49.296;6.900;2023-03-13T16:16:22;3.10;;;1.70;;
66567;SDS011;53422;49.296;6.900;2023-03-13T16:18:52;2.58;;;1.10;;
66567;SDS011;53422;49.296;6.900;2023-03-13T16:21:20;2.20;;;1.33;;
66567;SDS011;53422;49.296;6.900;2023-03-13T16:23:47;3.38;;;1.45;;
66567;SDS011;53422;49.296;6.900;2023-03-13T16:26:14;4.28;;;1.85;;
66567;SDS011;53422;49.296;6.900;2023-03-13T16:28:42;3.20;;;1.77;;
66567;SDS011;53422;49.296;6.900;2023-03-13T16:31:22;2.33;;;1.55;;
66567;SDS011;53422;49.296;6.900;2023-03-13T16:33:49;2.78;;;1.35;;
66567;SDS011;53422;49.296;6.900;2023-03-13T16:36:17;3.00;;;2.40;;
66567;SDS011;53422;49.296;6.900;2023-03-13T16:38:45;2.03;;;1.38;;
66567;SDS011;53422;49.296;6.900;2023-03-13T16:41:12;2.70;;;1.40;;
66567;SDS011;53422;49.296;6.900;2023-03-13T16:43:39;4.50;;;1.80;;
66567;SDS011;53422;49.296;6.900;2023-03-13T16:46:12;3.25;;;1.85;;
66567;SDS011;53422;49.296;6.900;2023-03-13T16:48:44;3.30;;;1.15;;
66567;SDS011;53422;49.296;6.900;2023-03-13T16:51:15;3.00;;;1.35;;
66567;SDS011;53422;49.296;6.900;2023-03-13T16:53:48;2.13;;;1.60;;
66567;SDS011;53422;49.296;6.900;2023-03-13T16:56:27;4.45;;;2.20;;
66567;SDS011;53422;49.296;6.900;2023-03-13T16:58:56;13.48;;;4.28;;
66567;SDS011;53422;49.296;6.900;2023-03-13T17:01:22;14.10;;;3.10;;
66567;SDS011;53422;49.296;6.900;2023-03-13T17:03:53;7.95;;;2.60;;
66567;SDS011;53422;49.296;6.900;2023-03-13T17:06:21;8.30;;;2.47;;
66567;SDS011;53422;49.296;6.900;2023-03-13T17:08:51;5.68;;;2.30;;
66567;SDS011;53422;49.296;6.900;2023-03-13T17:11:19;4.15;;;1.90;;
66567;SDS011;53422;49.296;6.900;2023-03-13T17:13:46;7.00;;;2.78;;
66567;SDS011;53422;49.296;6.900;2023-03-13T17:18:44;6.13;;;2.85;;
66567;SDS011;53422;49.296;6.900;2023-03-13T17:21:13;6.28;;;2.85;;
66567;SDS011;53422;49.296;6.900;2023-03-13T17:23:41;6.20;;;2.70;;